Time;durP1;ratioP1;P1;durP2;ratioP2;P2;SDS_P1;SDS_P2;PMS_P1;PMS_P2;Temp;Humidity;BMP_temperature;BMP_pressure;BME280_temperature;BME280_humidity;BME280_pressure;Samples;Min_cycle;Max_cycle;Signal;HPM_P1;HPM_P2
2022/11/25 00:10:42;;;;;;;4.18;0.75;;;7.50;99.90;;;;;;6388690;22;20022;-93
2022/11/25 00:13:08;;;;;;;6.90;0.93;;;7.50;99.90;;;;;;6375499;22;20025;-92
2022/11/25 00:15:34;;;;;;;7.60;1.07;;;7.50;99.90;;;;;;6349362;22;20122;-93
2022/11/25 00:17:59;;;;;;;4.53;1.03;;;7.50;99.90;;;;;;6375795;22;20037;-93
2022/11/25 00:20:25;;;;;;;4.80;1.00;;;7.50;99.90;;;;;;6375679;22;20014;-92
2022/11/25 00:23:11;;;;;;;5.60;1.43;;;7.60;99.90;;;;;;6376444;22;20021;-92
2022/11/25 00:25:42;;;;;;;3.60;0.85;;;7.60;99.90;;;;;;6375694;22;20055;-92
2022/11/25 00:28:08;;;;;;;4.13;0.52;;;7.60;99.90;;;;;;6349871;22;20014;-93
2022/11/25 00:30:34;;;;;;;5.87;1.13;;;7.60;99.90;;;;;;6375407;22;20014;-92
2022/11/25 00:32:59;;;;;;;6.43;1.93;;;7.60;99.90;;;;;;6375646;22;20017;-93
2022/11/25 00:35:25;;;;;;;5.13;0.87;;;7.60;99.90;;;;;;6375907;22;20093;-93
2022/11/25 00:37:51;;;;;;;8.17;0.90;;;7.60;99.90;;;;;;6375381;22;20018;-93
2022/11/25 00:40:16;;;;;;;5.13;0.83;;;7.60;99.90;;;;;;6374843;22;20014;-94
2022/11/25 00:45:26;;;;;;;4.38;0.80;;;7.60;99.90;;;;;;6379430;22;20014;-92
2022/11/25 00:47:54;;;;;;;6.33;1.17;;;7.70;99.90;;;;;;6375527;22;20155;-92
2022/11/25 00:50:19;;;;;;;3.42;0.70;;;7.70;99.90;;;;;;6375411;22;20029;-93
2022/11/25 00:52:45;;;;;;;7.73;0.90;;;7.70;99.90;;;;;;6349110;22;20446;-93
2022/11/25 00:55:11;;;;;;;8.90;1.20;;;7.70;99.90;;;;;;6375353;22;20446;-92
2022/11/25 00:57:36;;;;;;;4.77;0.97;;;7.70;99.90;;;;;;6348910;22;20042;-93
2022/11/25 01:00:13;;;;;;;1.93;0.70;;;7.70;99.90;;;;;;6375193;22;20017;-93
2022/11/25 01:02:39;;;;;;;3.87;1.00;;;7.70;99.90;;;;;;6348890;22;20053;-92
2022/11/25 01:05:05;;;;;;;3.37;0.77;;;7.70;99.90;;;;;;6375339;22;20244;-92
2022/11/25 01:10:06;;;;;;;4.40;1.08;;;7.70;99.90;;;;;;6358983;22;20022;-93
2022/11/25 01:12:32;;;;;;;7.82;0.90;;;7.70;99.90;;;;;;6292142;22;20018;-94
2022/11/25 01:14:58;;;;;;;6.33;1.43;;;7.80;99.90;;;;;;6317691;22;20018;-93
2022/11/25 01:17:24;;;;;;;5.63;1.40;;;7.80;99.90;;;;;;6318443;22;20026;-94
2022/11/25 01:19:49;;;;;;;4.43;1.00;;;7.80;99.90;;;;;;6292010;22;20014;-94
2022/11/25 01:22:15;;;;;;;6.00;1.10;;;7.80;99.90;;;;;;6317814;22;20018;-93
2022/11/25 01:24:41;;;;;;;7.23;1.47;;;7.80;99.90;;;;;;6344439;22;20021;-92
2022/11/25 01:27:06;;;;;;;6.97;1.33;;;7.80;99.90;;;;;;6292766;22;20050;-93
2022/11/25 01:29:32;;;;;;;6.07;0.97;;;7.90;99.90;;;;;;6292605;22;20045;-93
2022/11/25 01:31:58;;;;;;;5.87;1.20;;;7.80;99.90;;;;;;6292931;22;20011;-94
2022/11/25 01:34:31;;;;;;;5.37;0.97;;;7.90;99.90;;;;;;6319083;22;20447;-93
2022/11/25 01:36:57;;;;;;;4.53;1.00;;;7.80;99.90;;;;;;6318723;22;20015;-94
2022/11/25 01:39:26;;;;;;;4.75;1.10;;;7.80;99.90;;;;;;6343598;22;20132;-94
2022/11/25 01:41:51;;;;;;;3.77;1.20;;;7.80;99.90;;;;;;6317632;22;20050;-93
2022/11/25 01:44:22;;;;;;;5.37;0.97;;;7.80;99.90;;;;;;6291766;22;20018;-95
2022/11/25 01:46:54;;;;;;;4.30;1.00;;;7.80;99.90;;;;;;6317890;22;20075;-95
2022/11/25 01:49:28;;;;;;;5.63;1.10;;;7.80;99.90;;;;;;6319592;22;20015;-93
2022/11/25 01:52:01;;;;;;;6.50;1.10;;;7.80;99.90;;;;;;6321361;22;20010;-92
2022/11/25 01:54:32;;;;;;;4.15;1.02;;;7.80;99.90;;;;;;6346910;22;20014;-96
2022/11/25 01:57:12;;;;;;;5.70;1.17;;;7.80;99.90;;;;;;6322521;22;20018;-93
2022/11/25 01:59:43;;;;;;;5.85;1.00;;;7.70;99.90;;;;;;6326630;22;20015;-94
2022/11/25 02:02:12;;;;;;;2.92;0.85;;;7.70;99.90;;;;;;6325090;22;20071;-93
2022/11/25 02:04:39;;;;;;;5.80;1.23;;;7.70;99.90;;;;;;6323427;22;20014;-94
2022/11/25 02:07:18;;;;;;;5.03;0.80;;;7.70;99.90;;;;;;6298089;22;20014;-95
2022/11/25 02:09:46;;;;;;;3.50;0.90;;;7.70;99.90;;;;;;6321988;22;20018;-93
2022/11/25 02:12:13;;;;;;;6.50;1.20;;;7.70;99.90;;;;;;6323830;22;20029;-94
2022/11/25 02:14:40;;;;;;;7.03;1.38;;;7.70;99.90;;;;;;6325522;22;20042;-95
2022/11/25 02:17:06;;;;;;;6.05;1.30;;;7.70;99.90;;;;;;6301851;22;20026;-92
2022/11/25 02:19:46;;;;;;;2.87;0.90;;;7.70;99.90;;;;;;6302874;22;20014;-91
2022/11/25 02:22:24;;;;;;;4.80;1.10;;;7.70;99.90;;;;;;6327057;22;20010;-93
2022/11/25 02:24:55;;;;;;;4.00;0.70;;;7.70;99.90;;;;;;6320379;22;20053;-92
2022/11/25 02:27:21;;;;;;;6.72;1.50;;;7.80;99.90;;;;;;6319191;22;20011;-92
2022/11/25 02:29:48;;;;;;;3.10;0.70;;;7.70;99.90;;;;;;6319650;22;20014;-92
2022/11/25 02:32:14;;;;;;;7.13;1.10;;;7.80;99.90;;;;;;6319399;22;20049;-93
2022/11/25 02:34:49;;;;;;;3.60;1.13;;;7.80;99.90;;;;;;6345348;22;20014;-92
2022/11/25 02:37:18;;;;;;;3.53;0.80;;;7.80;99.90;;;;;;6318849;22;20018;-92
2022/11/25 02:39:46;;;;;;;3.95;0.80;;;7.80;99.90;;;;;;6319249;22;20018;-92
2022/11/25 02:42:12;;;;;;;4.60;1.42;;;7.80;99.90;;;;;;6319554;22;20485;-92
2022/11/25 02:44:38;;;;;;;4.40;0.80;;;7.80;99.90;;;;;;6319339;22;20018;-93
2022/11/25 02:47:03;;;;;;;2.70;0.97;;;7.70;99.90;;;;;;6318736;22;20047;-93
2022/11/25 02:49:29;;;;;;;5.37;0.97;;;7.70;99.90;;;;;;6293958;22;20014;-92
2022/11/25 02:51:55;;;;;;;6.30;0.80;;;7.80;99.90;;;;;;6319336;22;20018;-93
2022/11/25 02:54:20;;;;;;;8.57;1.10;;;7.80;99.90;;;;;;6319087;22;20010;-93
2022/11/25 02:56:46;;;;;;;4.13;1.10;;;7.70;99.90;;;;;;6319427;22;20014;-92
2022/11/25 02:59:12;;;;;;;4.20;0.80;;;7.80;99.90;;;;;;6318645;22;20655;-93
2022/11/25 03:01:38;;;;;;;7.10;1.70;;;7.70;99.90;;;;;;6318603;22;20022;-93
2022/11/25 03:04:04;;;;;;;6.53;1.70;;;7.80;99.90;;;;;;6318377;22;20089;-93
2022/11/25 03:06:30;;;;;;;6.82;1.40;;;7.70;99.90;;;;;;6318801;22;20014;-94
2022/11/25 03:08:57;;;;;;;6.33;1.07;;;7.70;99.90;;;;;;6318033;22;20069;-92
2022/11/25 03:12:17;;;;;;;3.58;0.90;;;7.70;99.90;;;;;;6318587;22;20019;-92
2022/11/25 03:14:17;;;;;;;4.97;1.38;;;7.70;99.90;;;;;;6344317;22;20026;-95
2022/11/25 03:16:43;;;;;;;6.15;1.42;;;7.70;99.90;;;;;;6318592;22;20025;-92
2022/11/25 03:19:08;;;;;;;6.13;1.87;;;7.70;99.90;;;;;;6318826;22;20010;-92
2022/11/25 03:21:34;;;;;;;6.10;0.90;;;7.70;99.90;;;;;;6318419;22;20014;-93
2022/11/25 03:24:00;;;;;;;4.93;1.10;;;7.70;99.90;;;;;;6318726;22;20054;-93
2022/11/25 03:26:25;;;;;;;6.63;1.23;;;7.70;99.90;;;;;;6318778;22;20010;-92
2022/11/25 03:28:51;;;;;;;4.03;1.03;;;7.70;99.90;;;;;;6318487;22;20025;-94
2022/11/25 03:31:19;;;;;;;7.93;1.63;;;7.70;99.90;;;;;;6318677;22;20014;-94
2022/11/25 03:33:45;;;;;;;4.45;1.45;;;7.80;99.90;;;;;;6318596;22;20014;-95
2022/11/25 03:36:11;;;;;;;6.50;1.17;;;7.80;99.90;;;;;;6318407;22;20050;-94
2022/11/25 03:38:37;;;;;;;5.10;1.10;;;7.80;99.90;;;;;;6318678;22;20075;-93
2022/11/25 03:41:02;;;;;;;4.80;1.40;;;7.80;99.90;;;;;;6318335;22;20021;-94
2022/11/25 03:43:28;;;;;;;3.80;1.10;;;7.80;99.90;;;;;;6316244;22;20083;-93
2022/11/25 03:45:54;;;;;;;6.23;1.43;;;7.90;99.90;;;;;;6317686;22;20097;-93
2022/11/25 03:48:20;;;;;;;4.50;1.40;;;7.90;99.90;;;;;;6292570;22;20244;-93
2022/11/25 03:50:47;;;;;;;3.90;1.60;;;7.80;99.90;;;;;;6318704;22;20038;-93
2022/11/25 03:53:13;;;;;;;5.50;1.20;;;7.80;99.90;;;;;;6317365;22;20342;-93
2022/11/25 03:55:38;;;;;;;4.90;1.33;;;7.90;99.90;;;;;;6344843;22;20085;-93
2022/11/25 03:58:04;;;;;;;4.53;1.33;;;7.90;99.90;;;;;;6318698;22;20019;-92
2022/11/25 04:00:32;;;;;;;3.27;0.93;;;7.90;99.90;;;;;;6318301;22;20129;-94
2022/11/25 04:02:58;;;;;;;6.57;1.48;;;7.90;99.90;;;;;;6317744;22;20014;-92
2022/11/25 04:05:23;;;;;;;8.77;1.70;;;7.90;99.90;;;;;;6318383;22;20014;-92
2022/11/25 04:07:49;;;;;;;8.07;1.70;;;8.00;99.90;;;;;;6292460;22;20061;-93
2022/11/25 04:10:15;;;;;;;5.57;1.77;;;8.00;99.90;;;;;;6338875;22;20050;-94
2022/11/25 04:12:47;;;;;;;4.47;1.60;;;8.00;99.90;;;;;;6287629;22;20351;-94
2022/11/25 04:15:14;;;;;;;4.57;1.52;;;8.00;99.90;;;;;;6288501;22;20015;-94
2022/11/25 04:17:41;;;;;;;7.15;2.00;;;8.00;99.90;;;;;;6313491;22;20019;-93
2022/11/25 04:20:07;;;;;;;6.25;1.85;;;8.00;99.90;;;;;;6313324;22;20094;-93
2022/11/25 04:22:33;;;;;;;;;;;8.00;99.90;;;;;;6313498;22;20336;-92
2022/11/25 04:24:59;;;;;;;4.60;1.92;;;8.00;99.90;;;;;;6313172;22;19915;-94
2022/11/25 04:27:25;;;;;;;8.70;2.00;;;8.00;99.90;;;;;;6313148;22;20015;-93
2022/11/25 04:29:50;;;;;;;3.87;1.97;;;8.00;99.90;;;;;;6313040;22;20019;-94
2022/11/25 04:32:16;;;;;;;5.50;1.73;;;8.00;99.90;;;;;;6313292;22;20022;-93
2022/11/25 04:34:42;;;;;;;7.20;2.03;;;8.00;99.90;;;;;;6313641;22;20033;-94
2022/11/25 04:37:08;;;;;;;6.63;1.93;;;8.00;99.90;;;;;;6314086;22;20014;-94
2022/11/25 04:39:34;;;;;;;6.87;2.07;;;8.00;99.90;;;;;;6312450;22;20064;-93
2022/11/25 04:44:44;;;;;;;6.28;1.90;;;8.10;99.90;;;;;;6339208;22;20440;-93
2022/11/25 04:47:09;;;;;;;6.00;2.10;;;8.10;99.90;;;;;;6312863;22;20015;-94
2022/11/25 04:49:35;;;;;;;6.97;2.57;;;8.10;99.90;;;;;;6287395;22;20014;-93
2022/11/25 04:52:02;;;;;;;7.77;2.20;;;8.10;99.90;;;;;;6287674;22;20011;-93
2022/11/25 04:54:27;;;;;;;4.25;1.58;;;8.10;99.90;;;;;;6313200;22;20054;-93
2022/11/25 04:56:53;;;;;;;6.37;2.07;;;8.10;99.90;;;;;;6312969;22;20519;-93
2022/11/25 05:00:01;;;;;;;6.73;2.27;;;8.10;99.90;;;;;;6312785;22;20018;-92
2022/11/25 05:02:27;;;;;;;6.70;2.08;;;8.10;99.90;;;;;;6322150;22;20026;-93
2022/11/25 05:04:55;;;;;;;7.90;2.45;;;8.10;99.90;;;;;;6314162;22;20444;-93
2022/11/25 05:07:25;;;;;;;5.55;2.10;;;8.00;99.90;;;;;;6320330;22;20022;-92
2022/11/25 05:09:50;;;;;;;12.25;3.08;;;8.00;99.90;;;;;;6323697;22;20015;-92
2022/11/25 05:12:21;;;;;;;8.20;2.23;;;8.10;99.90;;;;;;6324138;22;20019;-93
2022/11/25 05:14:47;;;;;;;8.15;2.25;;;8.10;99.90;;;;;;6320568;22;20011;-92
2022/11/25 05:17:16;;;;;;;7.90;2.08;;;8.00;99.90;;;;;;6320300;22;20018;-93
2022/11/25 05:19:42;;;;;;;6.07;1.88;;;8.10;99.90;;;;;;6315106;22;20003;-94
2022/11/25 05:22:16;;;;;;;7.32;2.75;;;8.10;99.90;;;;;;6313189;22;20124;-96
2022/11/25 05:24:42;;;;;;;8.48;2.75;;;8.10;99.90;;;;;;6312958;22;20064;-93
2022/11/25 05:27:08;;;;;;;9.30;3.88;;;8.00;99.90;;;;;;6312242;22;20050;-94
2022/11/25 05:29:34;;;;;;;7.47;2.33;;;8.00;99.90;;;;;;6312874;22;20022;-93
2022/11/25 05:32:00;;;;;;;9.10;3.13;;;8.10;99.90;;;;;;6311985;22;20256;-93
2022/11/25 05:34:26;;;;;;;7.97;2.40;;;8.10;99.90;;;;;;6286624;22;20436;-93
2022/11/25 05:36:52;;;;;;;8.23;3.00;;;8.10;99.90;;;;;;6315536;22;20098;-95
2022/11/25 05:39:18;;;;;;;7.03;2.87;;;8.10;99.90;;;;;;6313723;22;20019;-93
2022/11/25 05:41:44;;;;;;;8.63;2.80;;;8.10;99.90;;;;;;6313720;22;20062;-95
2022/11/25 05:44:09;;;;;;;7.10;2.53;;;8.10;99.90;;;;;;6313737;22;20058;-94
2022/11/25 05:46:35;;;;;;;6.88;2.90;;;8.10;99.90;;;;;;6339715;22;20515;-95
2022/11/25 05:49:01;;;;;;;5.70;2.53;;;8.10;99.90;;;;;;6313281;22;20014;-94
2022/11/25 05:51:27;;;;;;;7.23;2.60;;;8.10;99.90;;;;;;6315028;22;20064;-94
2022/11/25 05:53:55;;;;;;;6.68;2.33;;;8.10;99.90;;;;;;6314163;22;20017;-93
2022/11/25 05:56:21;;;;;;;7.80;2.80;;;8.10;99.90;;;;;;6340092;22;20011;-93
2022/11/25 05:58:47;;;;;;;8.37;2.80;;;8.10;99.90;;;;;;6313961;22;20015;-93
2022/11/25 06:01:15;;;;;;;7.50;2.90;;;8.10;99.90;;;;;;6314479;22;20015;-93
2022/11/25 06:03:44;;;;;;;8.85;3.13;;;8.10;99.90;;;;;;6314989;22;20015;-95
2022/11/25 06:06:17;;;;;;;6.85;2.90;;;8.10;99.90;;;;;;6315047;22;20093;-95
2022/11/25 06:08:46;;;;;;;9.35;2.95;;;8.10;99.90;;;;;;6315731;22;20057;-96
2022/11/25 06:11:16;;;;;;;8.45;2.92;;;8.10;99.90;;;;;;6286408;22;20053;-95
2022/11/25 06:13:43;;;;;;;7.75;2.85;;;8.10;99.90;;;;;;6312000;22;20069;-93
2022/11/25 07:14:12;;;;;;;6.60;2.70;;;8.30;99.90;;;;;;6404696;22;20018;-96
2022/11/25 07:17:08;;;;;;;5.72;2.63;;;8.30;99.90;;;;;;6351948;22;20343;-95
2022/11/25 07:19:34;;;;;;;5.90;2.50;;;8.30;99.90;;;;;;6350849;22;20447;-94
2022/11/25 07:22:00;;;;;;;5.57;2.17;;;8.30;99.90;;;;;;6350405;22;20090;-95
2022/11/25 07:24:26;;;;;;;7.13;2.72;;;8.30;99.90;;;;;;6350658;22;20016;-95
2022/11/25 07:26:52;;;;;;;7.43;2.83;;;8.30;99.90;;;;;;6324320;22;20006;-96
2022/11/25 07:29:20;;;;;;;6.17;2.80;;;8.30;99.90;;;;;;6352086;22;20017;-96
2022/11/25 07:31:45;;;;;;;6.90;2.35;;;8.30;99.90;;;;;;6352432;22;20018;-95
2022/11/25 07:34:16;;;;;;;5.03;2.10;;;8.30;99.90;;;;;;6352307;22;20077;-94
2022/11/25 07:36:43;;;;;;;8.70;2.95;;;8.30;99.90;;;;;;6351779;22;20147;-96
2022/11/25 07:39:13;;;;;;;5.88;2.35;;;8.30;99.90;;;;;;6353920;22;20014;-95
2022/11/25 07:41:40;;;;;;;7.22;2.28;;;8.40;99.90;;;;;;6353149;22;20027;-96
2022/11/25 07:44:13;;;;;;;5.18;1.88;;;8.30;99.90;;;;;;6353901;22;20017;-95
2022/11/25 07:46:41;;;;;;;10.40;2.40;;;8.40;99.90;;;;;;6356936;22;20097;-95
2022/11/25 07:49:13;;;;;;;7.15;1.83;;;8.40;99.90;;;;;;6351187;22;20018;-94
2022/11/25 07:51:38;;;;;;;6.80;2.38;;;8.40;99.90;;;;;;6351232;22;20018;-94
2022/11/25 07:54:07;;;;;;;6.13;1.90;;;8.40;99.90;;;;;;6353108;22;20276;-96
2022/11/25 07:56:35;;;;;;;3.90;1.52;;;8.40;99.90;;;;;;6352692;22;20073;-94
2022/11/25 07:59:01;;;;;;;6.57;1.90;;;8.40;99.90;;;;;;6351883;22;20096;-94
2022/11/25 08:01:27;;;;;;;6.85;1.98;;;8.40;99.90;;;;;;6356651;22;20037;-93
2022/11/25 08:03:53;;;;;;;3.60;1.63;;;8.40;99.90;;;;;;6363815;22;20044;-93
2022/11/25 08:06:21;;;;;;;7.20;1.95;;;8.40;99.90;;;;;;6360922;22;20013;-91
2022/11/25 08:08:48;;;;;;;5.00;1.52;;;8.40;99.90;;;;;;6355116;22;20017;-94
2022/11/25 08:11:22;;;;;;;6.82;1.70;;;8.40;99.90;;;;;;6355292;22;20010;-91
2022/11/25 08:13:48;;;;;;;4.05;1.70;;;8.40;99.90;;;;;;6352466;22;20010;-92
2022/11/25 08:16:17;;;;;;;6.07;1.77;;;8.50;99.90;;;;;;6347052;22;20048;-94
2022/11/25 08:18:43;;;;;;;3.55;1.75;;;8.50;99.90;;;;;;6345501;22;20014;-94
2022/11/25 08:21:11;;;;;;;6.57;1.92;;;8.50;99.90;;;;;;6345500;22;20018;-93
2022/11/25 08:23:39;;;;;;;4.40;1.33;;;8.50;99.90;;;;;;6346060;22;20018;-94
2022/11/25 08:26:12;;;;;;;3.42;1.30;;;8.50;99.90;;;;;;6344498;22;20478;-94
2022/11/25 08:28:40;;;;;;;6.07;1.25;;;8.50;99.90;;;;;;6346043;22;20014;-94
2022/11/25 08:31:48;;;;;;;4.32;1.20;;;8.60;99.90;;;;;;6344283;22;20022;-92
2022/11/25 10:16:39;;;;;;;4.55;1.30;;;9.20;99.90;;;;;;6408277;22;20430;-94
2022/11/25 10:19:27;;;;;;;3.10;0.95;;;9.30;99.90;;;;;;6385015;22;20024;-95
2022/11/25 10:21:53;;;;;;;3.17;1.13;;;9.30;99.90;;;;;;6379651;22;20018;-95
2022/11/25 10:24:29;;;;;;;4.47;1.35;;;9.30;99.90;;;;;;6409212;22;20014;-96
2022/11/25 10:28:08;;;;;;;4.00;1.00;;;9.40;99.90;;;;;;6381478;22;20462;-96
2022/11/25 11:14:35;;;;;;;6.40;1.33;;;9.90;99.90;;;;;;6355869;22;20027;-85
2022/11/25 11:17:01;;;;;;;5.93;1.23;;;9.90;99.90;;;;;;6292038;22;20070;-93
2022/11/25 11:19:29;;;;;;;2.43;0.77;;;9.90;99.90;;;;;;6343818;22;20167;-84
2022/11/25 11:21:57;;;;;;;4.32;1.27;;;10.00;99.90;;;;;;6317437;22;20015;-93
2022/11/25 11:24:28;;;;;;;4.90;1.15;;;10.00;99.90;;;;;;6317101;22;20015;-87
2022/11/25 11:27:34;;;;;;;2.95;0.95;;;10.00;99.90;;;;;;6343564;22;20021;-89
2022/11/25 11:30:14;;;;;;;5.07;1.10;;;10.10;99.90;;;;;;6193222;23;20020;-85
2022/11/25 11:32:43;;;;;;;5.82;1.13;;;10.10;99.90;;;;;;6333181;22;20014;-86
2022/11/25 11:35:43;;;;;;;3.60;1.00;;;10.10;99.90;;;;;;6342595;22;20037;-84
2022/11/25 11:38:33;;;;;;;3.40;1.02;;;10.20;99.90;;;;;;6342864;22;20025;-85
2022/11/25 11:41:27;;;;;;;4.10;1.00;;;10.20;99.90;;;;;;6317255;22;20010;-83
2022/11/25 11:44:04;;;;;;;3.50;0.82;;;10.20;99.90;;;;;;6344622;22;20018;-83
2022/11/25 11:46:46;;;;;;;5.85;1.13;;;10.20;99.90;;;;;;6380553;22;20018;-83
2022/11/25 11:49:12;;;;;;;4.38;1.10;;;10.20;99.90;;;;;;6318982;22;20347;-83
2022/11/25 11:52:03;;;;;;;3.03;0.87;;;10.20;99.90;;;;;;6371016;22;20014;-84
2022/11/25 11:54:35;;;;;;;5.03;1.05;;;10.20;99.90;;;;;;6343066;22;20470;-87
2022/11/25 11:58:02;;;;;;;3.83;1.10;;;10.30;99.90;;;;;;6371920;22;20010;-87
2022/11/25 12:00:35;;;;;;;3.88;0.75;;;10.30;99.90;;;;;;6184320;23;20098;-87
2022/11/25 12:03:28;;;;;;;3.08;0.77;;;10.30;99.90;;;;;;6370725;22;20014;-82
2022/11/25 12:06:10;;;;;;;3.95;1.02;;;10.40;99.90;;;;;;6338210;22;20033;-85
2022/11/25 12:09:18;;;;;;;4.65;1.25;;;10.40;99.90;;;;;;6344574;22;20015;-88
2022/11/25 12:12:01;;;;;;;4.00;1.45;;;10.40;99.90;;;;;;6344430;22;20018;-90
2022/11/25 12:14:52;;;;;;;5.65;0.90;;;10.40;99.90;;;;;;6373216;22;20018;-85
2022/11/25 12:17:26;;;;;;;7.85;1.20;;;10.50;99.90;;;;;;6371135;22;20447;-91
2022/11/25 12:20:28;;;;;;;3.92;0.95;;;10.50;99.90;;;;;;6318264;22;20015;-83
2022/11/25 12:23:20;;;;;;;3.33;0.65;;;10.50;99.90;;;;;;6276977;22;20021;-87
2022/11/25 12:26:10;;;;;;;3.15;0.60;;;10.50;99.90;;;;;;6344287;22;20019;-86
2022/11/25 12:28:59;;;;;;;3.40;0.90;;;10.50;99.90;;;;;;6317005;22;20335;-90
2022/11/25 12:31:31;;;;;;;6.03;0.80;;;10.60;99.90;;;;;;6313534;22;20378;-91
2022/11/25 12:34:00;;;;;;;3.17;0.80;;;10.60;99.90;;;;;;6314721;22;20053;-86
2022/11/25 12:36:39;;;;;;;5.18;0.88;;;10.60;99.90;;;;;;6341291;22;20053;-95
2022/11/25 12:39:11;;;;;;;5.03;0.85;;;10.60;99.90;;;;;;6316083;22;20025;-88
2022/11/25 12:41:52;;;;;;;6.50;0.80;;;10.70;99.90;;;;;;6317329;22;20015;-87
2022/11/25 12:44:32;;;;;;;4.57;0.70;;;10.60;99.90;;;;;;6290793;22;20147;-90
2022/11/25 12:46:58;;;;;;;4.72;0.82;;;10.60;99.90;;;;;;6343651;22;20021;-84
2022/11/25 12:49:33;;;;;;;2.37;0.43;;;10.60;99.90;;;;;;6266026;22;20014;-93
2022/11/25 12:52:27;;;;;;;2.95;0.77;;;10.60;99.90;;;;;;6343069;22;20328;-92
2022/11/25 12:55:08;;;;;;;4.03;0.70;;;10.60;99.90;;;;;;6343450;22;20097;-96
2022/11/25 12:57:58;;;;;;;2.40;0.40;;;10.70;99.90;;;;;;6343397;22;20415;-88
2022/11/25 13:00:45;;;;;;;4.85;1.05;;;10.70;99.90;;;;;;6342846;22;20045;-84
2022/11/25 13:03:48;;;;;;;3.08;0.60;;;10.70;99.90;;;;;;6285238;22;20412;-85
2022/11/25 13:06:39;;;;;;;6.57;0.95;;;10.80;99.90;;;;;;6342768;22;20461;-91
2022/11/25 13:09:35;;;;;;;3.00;0.45;;;10.80;99.90;;;;;;6343317;22;20022;-87
2022/11/25 13:12:04;;;;;;;2.33;0.60;;;10.80;99.90;;;;;;6317634;22;20021;-90
2022/11/25 13:14:52;;;;;;;5.40;0.57;;;10.80;99.90;;;;;;6343217;22;20018;-86
2022/11/25 13:17:18;;;;;;;3.28;0.70;;;10.90;99.90;;;;;;6342934;22;20404;-86
2022/11/25 13:19:43;;;;;;;7.43;0.95;;;10.80;99.90;;;;;;6317231;22;20470;-94
2022/11/25 13:22:22;;;;;;;5.67;0.60;;;10.80;99.90;;;;;;6371306;22;20006;-85
2022/11/25 13:24:48;;;;;;;8.10;1.00;;;10.80;99.90;;;;;;6317351;22;20033;-86
2022/11/25 13:27:38;;;;;;;2.53;0.40;;;10.80;99.90;;;;;;6343191;22;20006;-91
2022/11/25 13:30:25;;;;;;;4.03;0.80;;;10.80;99.90;;;;;;6370390;22;20040;-86
2022/11/25 13:33:41;;;;;;;3.53;0.88;;;10.70;99.90;;;;;;6342402;22;20046;-85
2022/11/25 13:36:16;;;;;;;4.43;0.80;;;10.70;99.90;;;;;;6240134;23;20017;-90
2022/11/25 13:38:48;;;;;;;5.15;0.70;;;10.70;99.90;;;;;;6217859;23;20020;-93
2022/11/25 13:41:20;;;;;;;4.40;1.25;;;10.70;99.90;;;;;;6298723;22;20017;-85
2022/11/25 13:43:54;;;;;;;5.38;0.95;;;10.70;99.90;;;;;;6345180;22;20018;-85
2022/11/25 13:50:28;;;;;;;5.53;0.77;;;10.70;99.90;;;;;;6372703;22;20063;-85
2022/11/25 13:53:33;;;;;;;4.05;0.50;;;10.70;99.90;;;;;;6344464;22;20081;-84
2022/11/25 13:56:35;;;;;;;4.47;0.70;;;10.80;99.90;;;;;;6194541;23;20469;-85
2022/11/25 13:59:09;;;;;;;5.40;1.10;;;10.80;99.90;;;;;;6172936;23;20123;-91
2022/11/25 14:02:22;;;;;;;5.65;1.38;;;10.80;99.90;;;;;;6315375;22;20285;-84
2022/11/25 14:05:15;;;;;;;5.07;0.80;;;10.70;99.90;;;;;;6290291;22;20022;-85
2022/11/25 14:08:18;;;;;;;5.00;0.85;;;10.70;99.90;;;;;;6343849;22;20018;-85
2022/11/25 14:10:48;;;;;;;5.72;0.95;;;10.70;99.90;;;;;;6318095;22;20025;-84
2022/11/25 14:13:26;;;;;;;5.60;0.80;;;10.70;99.90;;;;;;6318170;22;20014;-84
2022/11/25 14:16:45;;;;;;;2.45;0.60;;;10.70;99.90;;;;;;6343979;22;20071;-85
2022/11/25 14:19:31;;;;;;;2.70;0.50;;;10.70;99.90;;;;;;6343888;22;20020;-86
2022/11/25 14:22:16;;;;;;;4.95;1.00;;;10.80;99.90;;;;;;6343759;22;20020;-84
2022/11/25 14:24:50;;;;;;;4.95;1.42;;;10.80;99.90;;;;;;6343833;22;20011;-86
2022/11/25 14:27:24;;;;;;;5.05;1.15;;;10.70;99.90;;;;;;6317821;22;20021;-84
2022/11/25 14:29:56;;;;;;;4.18;0.80;;;10.70;99.90;;;;;;6317704;22;20089;-87
2022/11/25 14:32:34;;;;;;;3.95;0.95;;;10.70;99.90;;;;;;6343700;22;20015;-85
2022/11/25 14:35:12;;;;;;;5.28;0.80;;;10.70;99.90;;;;;;6317775;22;20071;-85
2022/11/25 14:37:48;;;;;;;4.90;1.85;;;10.70;99.90;;;;;;6343833;22;20399;-86
2022/11/25 14:40:48;;;;;;;5.43;1.50;;;10.60;99.90;;;;;;6343842;22;20022;-85
2022/11/25 14:43:21;;;;;;;5.40;1.02;;;10.60;99.90;;;;;;6343641;22;20054;-84
2022/11/25 14:46:07;;;;;;;2.95;0.73;;;10.60;99.90;;;;;;6343815;22;20029;-85
2022/11/25 14:48:32;;;;;;;3.45;1.00;;;10.60;99.90;;;;;;6343791;22;20022;-83
2022/11/25 14:51:08;;;;;;;7.43;1.10;;;10.60;99.90;;;;;;6291568;22;20015;-83
2022/11/25 14:53:44;;;;;;;3.08;0.80;;;10.50;99.90;;;;;;6343638;22;20014;-84
2022/11/25 14:56:11;;;;;;;5.00;1.23;;;10.50;99.90;;;;;;6342245;22;20573;-84
2022/11/25 14:58:45;;;;;;;5.47;0.75;;;10.50;99.90;;;;;;6316633;22;20059;-84
2022/11/25 15:01:22;;;;;;;4.43;0.60;;;10.40;99.90;;;;;;6317512;22;20025;-84
2022/11/25 15:04:02;;;;;;;3.83;1.10;;;10.30;99.90;;;;;;6343941;22;20048;-84
2022/11/25 15:06:41;;;;;;;1.98;0.55;;;10.30;99.90;;;;;;6343277;22;20050;-83
2022/11/25 15:09:19;;;;;;;6.53;1.08;;;10.20;99.90;;;;;;6341349;22;20014;-84
2022/11/25 15:11:46;;;;;;;5.28;1.10;;;10.20;99.90;;;;;;6317333;22;20090;-84
2022/11/25 15:14:38;;;;;;;7.15;0.98;;;10.10;99.90;;;;;;6371143;22;20090;-84
2022/11/25 15:17:16;;;;;;;2.85;1.02;;;10.10;99.90;;;;;;6316487;22;20071;-85
2022/11/25 15:20:24;;;;;;;3.85;0.82;;;10.10;99.90;;;;;;6343510;22;20455;-84
2022/11/25 15:23:22;;;;;;;3.35;0.70;;;10.00;99.90;;;;;;6343603;22;20049;-86
2022/11/25 15:25:53;;;;;;;5.60;1.00;;;10.00;99.90;;;;;;6317055;22;20021;-84
2022/11/25 15:28:19;;;;;;;4.85;1.13;;;9.90;99.90;;;;;;6316703;22;20045;-85
2022/11/25 15:31:06;;;;;;;3.60;0.90;;;9.90;99.90;;;;;;6317384;22;20010;-84
2022/11/25 15:33:38;;;;;;;6.07;1.05;;;9.90;99.90;;;;;;6371203;22;20067;-85
2022/11/25 15:36:04;;;;;;;5.80;2.20;;;9.80;99.90;;;;;;6343360;22;20404;-86
2022/11/25 15:38:36;;;;;;;9.07;2.17;;;9.80;99.90;;;;;;6317451;22;20339;-85
2022/11/25 15:41:42;;;;;;;6.10;2.03;;;9.80;99.90;;;;;;6344310;22;20022;-88
2022/11/25 15:44:33;;;;;;;8.38;2.28;;;9.70;99.90;;;;;;6202161;23;20020;-85
2022/11/25 15:47:05;;;;;;;6.72;2.33;;;9.70;99.90;;;;;;6245057;23;20016;-86
2022/11/25 15:49:32;;;;;;;5.43;1.90;;;9.70;99.90;;;;;;6280662;22;20025;-95
2022/11/25 15:52:26;;;;;;;6.88;1.83;;;9.70;99.90;;;;;;6371005;22;20018;-85
2022/11/25 15:54:56;;;;;;;7.80;1.60;;;9.60;99.90;;;;;;6370019;22;20093;-87
2022/11/25 15:57:35;;;;;;;6.28;1.20;;;9.60;99.90;;;;;;6316975;22;20014;-86
2022/11/25 16:00:16;;;;;;;5.03;1.10;;;9.60;99.90;;;;;;6317043;22;20054;-86
2022/11/25 16:02:41;;;;;;;4.85;1.17;;;9.60;99.90;;;;;;6370755;22;20029;-86
2022/11/25 16:05:13;;;;;;;5.37;0.90;;;9.60;99.90;;;;;;6342973;22;20010;-86
2022/11/25 16:07:51;;;;;;;4.80;1.35;;;9.60;99.90;;;;;;6316986;22;20026;-88
2022/11/25 16:10:28;;;;;;;5.47;1.10;;;9.60;99.90;;;;;;6343452;22;20064;-87
2022/11/25 16:13:37;;;;;;;6.18;1.35;;;9.50;99.90;;;;;;6343780;22;20448;-88
2022/11/25 16:16:31;;;;;;;4.40;0.98;;;9.60;99.90;;;;;;6343169;22;20063;-86
2022/11/25 16:19:05;;;;;;;3.03;0.65;;;9.50;99.90;;;;;;6317103;22;20325;-88
2022/11/25 16:21:34;;;;;;;5.25;1.38;;;9.50;99.90;;;;;;6369587;22;20014;-87
2022/11/25 16:24:08;;;;;;;6.40;1.60;;;9.50;99.90;;;;;;6370672;22;20018;-86
2022/11/25 16:26:48;;;;;;;4.22;0.90;;;9.50;99.90;;;;;;6370870;22;20042;-85
2022/11/25 16:29:25;;;;;;;5.20;0.90;;;9.50;99.90;;;;;;6370585;22;20330;-87
2022/11/25 16:35:53;;;;;;;4.22;1.00;;;9.40;99.90;;;;;;6272420;22;20019;-88
2022/11/25 16:38:19;;;;;;;3.58;1.13;;;9.40;99.90;;;;;;6222624;22;20408;-88
2022/11/25 16:40:45;;;;;;;4.20;1.00;;;9.40;99.90;;;;;;6221653;22;20077;-87
2022/11/25 16:43:22;;;;;;;4.63;1.00;;;9.40;99.90;;;;;;6248454;22;20576;-87
2022/11/25 16:46:06;;;;;;;2.33;0.80;;;9.40;99.90;;;;;;6248258;22;20086;-93
2022/11/25 16:48:35;;;;;;;5.95;1.25;;;9.40;99.90;;;;;;6199288;22;20247;-92
2022/11/25 16:51:01;;;;;;;5.25;1.25;;;9.30;99.90;;;;;;6222582;22;20016;-91
2022/11/25 16:53:45;;;;;;;2.77;0.90;;;9.30;99.90;;;;;;6198393;22;20090;-91
2022/11/25 16:56:15;;;;;;;4.47;0.95;;;9.30;99.90;;;;;;6222559;22;20016;-92
2022/11/25 16:58:43;;;;;;;6.13;1.65;;;9.30;99.90;;;;;;6223958;22;20019;-92
2022/11/25 17:01:14;;;;;;;5.75;1.98;;;9.30;99.90;;;;;;6227012;22;20019;-90
2022/11/25 17:03:40;;;;;;;5.80;1.45;;;9.30;99.90;;;;;;6223852;22;20095;-90
2022/11/25 17:06:26;;;;;;;9.90;4.67;;;9.20;99.90;;;;;;6269477;22;20118;-94
2022/11/25 17:09:04;;;;;;;14.25;6.22;;;9.20;99.90;;;;;;6316969;22;20025;-94
2022/11/25 17:11:45;;;;;;;19.63;8.02;;;9.10;99.90;;;;;;6294457;22;20021;-91
2022/11/25 17:14:18;;;;;;;10.70;3.28;;;9.10;99.90;;;;;;6315362;22;20014;-92
2022/11/25 17:16:44;;;;;;;11.68;6.97;;;9.10;99.90;;;;;;6317389;22;20115;-93
2022/11/25 17:19:14;;;;;;;9.63;3.40;;;9.00;99.90;;;;;;6317575;22;20474;-91